sensor_id;sensor_type;location;lat;lon;timestamp;temperature;humidity
13998;DHT22;7074;51.508;7.018;2022-07-29T00:01:50;21.80;82.60
13998;DHT22;7074;51.508;7.018;2022-07-29T00:04:19;21.80;82.50
13998;DHT22;7074;51.508;7.018;2022-07-29T00:06:46;21.90;82.20
13998;DHT22;7074;51.508;7.018;2022-07-29T00:09:13;21.90;81.90
13998;DHT22;7074;51.508;7.018;2022-07-29T00:11:41;22.00;81.90
13998;DHT22;7074;51.508;7.018;2022-07-29T00:14:08;22.00;82.00
13998;DHT22;7074;51.508;7.018;2022-07-29T00:16:37;22.00;82.20
13998;DHT22;7074;51.508;7.018;2022-07-29T00:19:04;21.90;82.00
13998;DHT22;7074;51.508;7.018;2022-07-29T00:21:31;21.90;81.90
13998;DHT22;7074;51.508;7.018;2022-07-29T00:23:58;21.80;82.70
13998;DHT22;7074;51.508;7.018;2022-07-29T00:26:26;21.70;83.00
13998;DHT22;7074;51.508;7.018;2022-07-29T00:28:57;21.70;83.10
13998;DHT22;7074;51.508;7.018;2022-07-29T00:31:24;21.80;82.90
13998;DHT22;7074;51.508;7.018;2022-07-29T00:33:56;21.80;82.90
13998;DHT22;7074;51.508;7.018;2022-07-29T00:36:23;21.70;83.10
13998;DHT22;7074;51.508;7.018;2022-07-29T00:38:50;21.80;82.90
13998;DHT22;7074;51.508;7.018;2022-07-29T00:41:18;21.60;83.40
13998;DHT22;7074;51.508;7.018;2022-07-29T00:43:45;21.70;83.40
13998;DHT22;7074;51.508;7.018;2022-07-29T00:46:13;21.50;83.70
13998;DHT22;7074;51.508;7.018;2022-07-29T00:48:40;21.50;83.60
13998;DHT22;7074;51.508;7.018;2022-07-29T00:51:09;21.50;83.60
13998;DHT22;7074;51.508;7.018;2022-07-29T00:53:36;21.40;84.10
13998;DHT22;7074;51.508;7.018;2022-07-29T00:56:05;21.40;84.20
13998;DHT22;7074;51.508;7.018;2022-07-29T00:58:32;21.40;84.60
13998;DHT22;7074;51.508;7.018;2022-07-29T01:00:59;21.40;85.40
13998;DHT22;7074;51.508;7.018;2022-07-29T01:03:26;21.30;85.30
13998;DHT22;7074;51.508;7.018;2022-07-29T01:05:54;21.30;85.20
13998;DHT22;7074;51.508;7.018;2022-07-29T01:08:23;21.30;85.40
13998;DHT22;7074;51.508;7.018;2022-07-29T01:10:51;21.30;85.40
13998;DHT22;7074;51.508;7.018;2022-07-29T01:13:19;21.40;85.50
13998;DHT22;7074;51.508;7.018;2022-07-29T01:15:51;21.40;85.60
13998;DHT22;7074;51.508;7.018;2022-07-29T01:18:24;21.40;86.00
13998;DHT22;7074;51.508;7.018;2022-07-29T01:21:17;21.30;86.10
13998;DHT22;7074;51.508;7.018;2022-07-29T01:24:01;21.20;86.40
13998;DHT22;7074;51.508;7.018;2022-07-29T01:26:37;21.20;87.10
13998;DHT22;7074;51.508;7.018;2022-07-29T01:29:12;21.20;87.50
13998;DHT22;7074;51.508;7.018;2022-07-29T01:31:47;21.10;87.80
13998;DHT22;7074;51.508;7.018;2022-07-29T01:34:20;21.10;88.60
13998;DHT22;7074;51.508;7.018;2022-07-29T01:36:51;21.10;88.10
13998;DHT22;7074;51.508;7.018;2022-07-29T01:39:27;20.90;89.20
13998;DHT22;7074;51.508;7.018;2022-07-29T01:42:01;21.00;89.20
13998;DHT22;7074;51.508;7.018;2022-07-29T01:44:37;21.00;89.20
13998;DHT22;7074;51.508;7.018;2022-07-29T01:47:12;21.00;89.30
13998;DHT22;7074;51.508;7.018;2022-07-29T01:49:45;21.00;89.60
13998;DHT22;7074;51.508;7.018;2022-07-29T01:52:19;21.00;90.00
13998;DHT22;7074;51.508;7.018;2022-07-29T01:54:52;21.00;90.00
13998;DHT22;7074;51.508;7.018;2022-07-29T01:57:23;21.00;90.20
13998;DHT22;7074;51.508;7.018;2022-07-29T01:59:53;21.10;90.20
13998;DHT22;7074;51.508;7.018;2022-07-29T02:02:22;21.10;90.30
13998;DHT22;7074;51.508;7.018;2022-07-29T02:04:50;21.00;90.50
13998;DHT22;7074;51.508;7.018;2022-07-29T02:07:21;21.00;90.60
13998;DHT22;7074;51.508;7.018;2022-07-29T02:09:50;21.00;90.50
13998;DHT22;7074;51.508;7.018;2022-07-29T02:12:19;21.10;90.60
13998;DHT22;7074;51.508;7.018;2022-07-29T02:14:50;21.10;90.70
13998;DHT22;7074;51.508;7.018;2022-07-29T02:17:22;21.00;90.80
13998;DHT22;7074;51.508;7.018;2022-07-29T02:19:50;21.00;91.10
13998;DHT22;7074;51.508;7.018;2022-07-29T02:22:19;20.90;91.30
13998;DHT22;7074;51.508;7.018;2022-07-29T02:24:48;21.00;91.50
13998;DHT22;7074;51.508;7.018;2022-07-29T02:27:18;21.00;91.60
13998;DHT22;7074;51.508;7.018;2022-07-29T02:29:46;21.00;91.70
13998;DHT22;7074;51.508;7.018;2022-07-29T02:32:16;20.90;91.80
13998;DHT22;7074;51.508;7.018;2022-07-29T02:34:46;21.00;92.00
13998;DHT22;7074;51.508;7.018;2022-07-29T02:37:16;20.90;92.00
13998;DHT22;7074;51.508;7.018;2022-07-29T02:39:45;20.90;92.20
13998;DHT22;7074;51.508;7.018;2022-07-29T02:42:16;20.90;92.30
13998;DHT22;7074;51.508;7.018;2022-07-29T02:44:44;20.90;92.50
13998;DHT22;7074;51.508;7.018;2022-07-29T02:47:18;20.90;92.70
13998;DHT22;7074;51.508;7.018;2022-07-29T02:49:53;20.80;92.70
13998;DHT22;7074;51.508;7.018;2022-07-29T02:52:26;20.80;92.80
13998;DHT22;7074;51.508;7.018;2022-07-29T02:54:55;20.80;93.20
13998;DHT22;7074;51.508;7.018;2022-07-29T02:57:31;20.80;93.20
13998;DHT22;7074;51.508;7.018;2022-07-29T03:00:01;20.80;93.20
13998;DHT22;7074;51.508;7.018;2022-07-29T03:02:34;20.90;93.50
13998;DHT22;7074;51.508;7.018;2022-07-29T03:05:06;20.90;94.60
13998;DHT22;7074;51.508;7.018;2022-07-29T03:07:35;20.80;95.00
13998;DHT22;7074;51.508;7.018;2022-07-29T03:10:05;20.80;94.30
13998;DHT22;7074;51.508;7.018;2022-07-29T03:12:35;20.90;94.50
13998;DHT22;7074;51.508;7.018;2022-07-29T03:15:03;20.90;94.60
13998;DHT22;7074;51.508;7.018;2022-07-29T03:17:31;20.90;94.90
13998;DHT22;7074;51.508;7.018;2022-07-29T03:19:58;20.80;95.00
13998;DHT22;7074;51.508;7.018;2022-07-29T03:22:28;20.80;95.10
13998;DHT22;7074;51.508;7.018;2022-07-29T03:24:55;20.70;95.50
13998;DHT22;7074;51.508;7.018;2022-07-29T03:27:23;20.70;95.40
13998;DHT22;7074;51.508;7.018;2022-07-29T03:29:50;20.70;95.60
13998;DHT22;7074;51.508;7.018;2022-07-29T03:32:17;20.70;95.70
13998;DHT22;7074;51.508;7.018;2022-07-29T03:34:44;20.70;95.60
13998;DHT22;7074;51.508;7.018;2022-07-29T03:37:11;20.60;95.60
13998;DHT22;7074;51.508;7.018;2022-07-29T03:39:41;20.10;95.90
13998;DHT22;7074;51.508;7.018;2022-07-29T03:42:13;20.00;96.80
13998;DHT22;7074;51.508;7.018;2022-07-29T03:44:42;20.20;97.10
13998;DHT22;7074;51.508;7.018;2022-07-29T03:47:12;20.20;97.30
13998;DHT22;7074;51.508;7.018;2022-07-29T03:49:41;20.20;97.50
13998;DHT22;7074;51.508;7.018;2022-07-29T03:52:09;19.80;98.70
13998;DHT22;7074;51.508;7.018;2022-07-29T03:54:36;19.90;99.20
13998;DHT22;7074;51.508;7.018;2022-07-29T03:57:06;19.90;98.90
13998;DHT22;7074;51.508;7.018;2022-07-29T03:59:34;20.00;99.10
13998;DHT22;7074;51.508;7.018;2022-07-29T04:02:02;20.00;99.20
13998;DHT22;7074;51.508;7.018;2022-07-29T04:04:32;20.00;99.10
13998;DHT22;7074;51.508;7.018;2022-07-29T04:07:00;20.00;99.30
13998;DHT22;7074;51.508;7.018;2022-07-29T04:09:27;19.90;99.60
13998;DHT22;7074;51.508;7.018;2022-07-29T04:11:55;20.00;99.70
13998;DHT22;7074;51.508;7.018;2022-07-29T04:14:24;20.00;99.60
13998;DHT22;7074;51.508;7.018;2022-07-29T04:16:51;20.00;99.60
13998;DHT22;7074;51.508;7.018;2022-07-29T04:19:18;20.10;99.70
13998;DHT22;7074;51.508;7.018;2022-07-29T04:21:45;20.20;99.70
13998;DHT22;7074;51.508;7.018;2022-07-29T08:59:26;20.90;99.90
13998;DHT22;7074;51.508;7.018;2022-07-29T10:47:20;21.30;99.90
13998;DHT22;7074;51.508;7.018;2022-07-29T10:49:56;21.20;99.90
13998;DHT22;7074;51.508;7.018;2022-07-29T10:52:24;21.20;99.90
13998;DHT22;7074;51.508;7.018;2022-07-29T10:54:54;21.30;99.90
13998;DHT22;7074;51.508;7.018;2022-07-29T10:57:26;21.20;99.90
13998;DHT22;7074;51.508;7.018;2022-07-29T11:00:31;21.20;99.90
13998;DHT22;7074;51.508;7.018;2022-07-29T11:03:00;21.20;99.90
13998;DHT22;7074;51.508;7.018;2022-07-29T11:05:27;21.40;99.90
13998;DHT22;7074;51.508;7.018;2022-07-29T11:08:16;21.40;99.90
13998;DHT22;7074;51.508;7.018;2022-07-29T11:10:46;21.60;99.90
13998;DHT22;7074;51.508;7.018;2022-07-29T11:13:47;21.60;99.90
13998;DHT22;7074;51.508;7.018;2022-07-29T11:16:16;21.80;99.90
13998;DHT22;7074;51.508;7.018;2022-07-29T11:19:20;21.80;99.90
13998;DHT22;7074;51.508;7.018;2022-07-29T11:21:47;22.00;99.90
13998;DHT22;7074;51.508;7.018;2022-07-29T11:24:18;22.20;99.90
13998;DHT22;7074;51.508;7.018;2022-07-29T11:27:13;22.30;99.90
13998;DHT22;7074;51.508;7.018;2022-07-29T11:29:52;22.10;99.90
13998;DHT22;7074;51.508;7.018;2022-07-29T11:32:21;22.20;99.90
13998;DHT22;7074;51.508;7.018;2022-07-29T11:35:11;22.40;99.90
13998;DHT22;7074;51.508;7.018;2022-07-29T11:37:39;22.50;99.90
13998;DHT22;7074;51.508;7.018;2022-07-29T11:40:16;22.70;99.90
13998;DHT22;7074;51.508;7.018;2022-07-29T11:42:49;22.80;99.90
13998;DHT22;7074;51.508;7.018;2022-07-29T11:45:24;22.90;99.90
13998;DHT22;7074;51.508;7.018;2022-07-29T11:47:55;23.00;99.90
13998;DHT22;7074;51.508;7.018;2022-07-29T11:50:31;23.40;99.90
13998;DHT22;7074;51.508;7.018;2022-07-29T11:53:00;23.60;99.90
13998;DHT22;7074;51.508;7.018;2022-07-29T11:55:27;23.60;99.90
13998;DHT22;7074;51.508;7.018;2022-07-29T11:58:00;23.80;99.90
13998;DHT22;7074;51.508;7.018;2022-07-29T12:00:29;23.90;99.90
13998;DHT22;7074;51.508;7.018;2022-07-29T12:02:59;24.00;99.90
13998;DHT22;7074;51.508;7.018;2022-07-29T12:05:37;24.30;99.90
13998;DHT22;7074;51.508;7.018;2022-07-29T12:08:13;24.40;99.90
13998;DHT22;7074;51.508;7.018;2022-07-29T12:10:42;24.30;99.90
13998;DHT22;7074;51.508;7.018;2022-07-29T12:13:12;24.30;99.90
13998;DHT22;7074;51.508;7.018;2022-07-29T12:15:40;24.50;99.90
13998;DHT22;7074;51.508;7.018;2022-07-29T12:18:15;24.60;99.90
13998;DHT22;7074;51.508;7.018;2022-07-29T12:20:44;24.50;99.90
13998;DHT22;7074;51.508;7.018;2022-07-29T12:23:12;24.70;99.90
13998;DHT22;7074;51.508;7.018;2022-07-29T12:25:40;24.70;99.90
13998;DHT22;7074;51.508;7.018;2022-07-29T12:28:10;24.60;99.50
13998;DHT22;7074;51.508;7.018;2022-07-29T12:30:40;24.80;99.70
13998;DHT22;7074;51.508;7.018;2022-07-29T12:33:20;24.70;99.90
13998;DHT22;7074;51.508;7.018;2022-07-29T12:35:50;24.70;99.40
13998;DHT22;7074;51.508;7.018;2022-07-29T12:38:19;24.70;99.80
13998;DHT22;7074;51.508;7.018;2022-07-29T12:40:47;24.60;99.50
13998;DHT22;7074;51.508;7.018;2022-07-29T12:43:16;24.70;99.40
13998;DHT22;7074;51.508;7.018;2022-07-29T12:45:45;24.80;99.10
13998;DHT22;7074;51.508;7.018;2022-07-29T12:48:13;24.90;99.10
13998;DHT22;7074;51.508;7.018;2022-07-29T12:51:00;25.00;98.90
13998;DHT22;7074;51.508;7.018;2022-07-29T12:53:28;24.90;98.10
13998;DHT22;7074;51.508;7.018;2022-07-29T12:55:57;25.00;98.60
13998;DHT22;7074;51.508;7.018;2022-07-29T12:58:32;25.30;98.50
13998;DHT22;7074;51.508;7.018;2022-07-29T13:01:01;25.40;98.00
13998;DHT22;7074;51.508;7.018;2022-07-29T13:03:29;25.30;98.10
13998;DHT22;7074;51.508;7.018;2022-07-29T13:06:32;25.20;98.00
13998;DHT22;7074;51.508;7.018;2022-07-29T13:09:06;25.40;98.10
13998;DHT22;7074;51.508;7.018;2022-07-29T13:11:35;25.20;96.90
13998;DHT22;7074;51.508;7.018;2022-07-29T13:14:04;25.10;96.80
13998;DHT22;7074;51.508;7.018;2022-07-29T13:16:31;24.80;97.30
13998;DHT22;7074;51.508;7.018;2022-07-29T13:19:06;25.10;97.30
13998;DHT22;7074;51.508;7.018;2022-07-29T13:21:36;25.30;97.60
13998;DHT22;7074;51.508;7.018;2022-07-29T13:24:05;25.30;97.40
13998;DHT22;7074;51.508;7.018;2022-07-29T13:26:32;25.50;97.30
13998;DHT22;7074;51.508;7.018;2022-07-29T13:28:59;25.50;98.00
13998;DHT22;7074;51.508;7.018;2022-07-29T13:31:27;25.50;98.20
13998;DHT22;7074;51.508;7.018;2022-07-29T13:33:54;25.70;97.90
13998;DHT22;7074;51.508;7.018;2022-07-29T13:36:22;26.10;97.50
13998;DHT22;7074;51.508;7.018;2022-07-29T13:38:50;26.30;97.10
13998;DHT22;7074;51.508;7.018;2022-07-29T13:41:18;26.50;96.80
13998;DHT22;7074;51.508;7.018;2022-07-29T13:43:45;26.70;96.60
13998;DHT22;7074;51.508;7.018;2022-07-29T13:46:12;26.80;96.20
13998;DHT22;7074;51.508;7.018;2022-07-29T13:48:39;27.00;96.00
13998;DHT22;7074;51.508;7.018;2022-07-29T13:51:07;26.90;95.40
13998;DHT22;7074;51.508;7.018;2022-07-29T13:53:34;26.70;95.50
13998;DHT22;7074;51.508;7.018;2022-07-29T13:56:03;26.70;95.90
13998;DHT22;7074;51.508;7.018;2022-07-29T13:58:32;26.90;95.20
13998;DHT22;7074;51.508;7.018;2022-07-29T14:00:59;26.90;94.60
13998;DHT22;7074;51.508;7.018;2022-07-29T14:03:27;27.30;94.50
13998;DHT22;7074;51.508;7.018;2022-07-29T14:05:55;27.40;94.40
13998;DHT22;7074;51.508;7.018;2022-07-29T14:08:25;27.20;94.10
13998;DHT22;7074;51.508;7.018;2022-07-29T14:10:53;27.30;93.90
13998;DHT22;7074;51.508;7.018;2022-07-29T14:13:22;27.10;93.20
13998;DHT22;7074;51.508;7.018;2022-07-29T14:15:49;26.90;94.10
13998;DHT22;7074;51.508;7.018;2022-07-29T14:18:16;27.00;95.60
13998;DHT22;7074;51.508;7.018;2022-07-29T14:20:44;27.20;96.50
13998;DHT22;7074;51.508;7.018;2022-07-29T14:23:11;27.20;96.60
13998;DHT22;7074;51.508;7.018;2022-07-29T14:25:38;27.50;96.60
13998;DHT22;7074;51.508;7.018;2022-07-29T14:28:06;27.10;96.40
13998;DHT22;7074;51.508;7.018;2022-07-29T14:30:35;27.20;97.00
13998;DHT22;7074;51.508;7.018;2022-07-29T14:33:02;27.30;96.50
13998;DHT22;7074;51.508;7.018;2022-07-29T14:35:29;27.40;96.60
13998;DHT22;7074;51.508;7.018;2022-07-29T14:37:56;27.60;96.20
13998;DHT22;7074;51.508;7.018;2022-07-29T14:40:24;27.50;96.20
13998;DHT22;7074;51.508;7.018;2022-07-29T14:42:51;27.60;95.60
13998;DHT22;7074;51.508;7.018;2022-07-29T14:45:18;27.60;95.60
13998;DHT22;7074;51.508;7.018;2022-07-29T14:47:47;27.70;95.30
13998;DHT22;7074;51.508;7.018;2022-07-29T14:50:15;27.70;95.00
13998;DHT22;7074;51.508;7.018;2022-07-29T14:52:44;27.70;94.70
13998;DHT22;7074;51.508;7.018;2022-07-29T14:55:11;27.30;94.80
13998;DHT22;7074;51.508;7.018;2022-07-29T14:57:38;27.20;95.60
13998;DHT22;7074;51.508;7.018;2022-07-29T15:00:07;27.00;95.60
13998;DHT22;7074;51.508;7.018;2022-07-29T15:02:35;27.20;95.80
13998;DHT22;7074;51.508;7.018;2022-07-29T15:05:04;27.60;95.70
13998;DHT22;7074;51.508;7.018;2022-07-29T15:07:32;27.80;95.10
13998;DHT22;7074;51.508;7.018;2022-07-29T15:09:59;27.40;95.10
13998;DHT22;7074;51.508;7.018;2022-07-29T15:12:26;27.60;95.10
13998;DHT22;7074;51.508;7.018;2022-07-29T15:14:53;27.50;95.40
13998;DHT22;7074;51.508;7.018;2022-07-29T15:17:20;27.80;94.80
13998;DHT22;7074;51.508;7.018;2022-07-29T15:19:48;28.10;94.30
13998;DHT22;7074;51.508;7.018;2022-07-29T15:22:17;28.00;94.60
13998;DHT22;7074;51.508;7.018;2022-07-29T15:24:44;28.20;94.30
13998;DHT22;7074;51.508;7.018;2022-07-29T15:27:11;28.10;93.50
13998;DHT22;7074;51.508;7.018;2022-07-29T15:29:40;28.10;93.80
13998;DHT22;7074;51.508;7.018;2022-07-29T15:32:07;27.80;94.50
13998;DHT22;7074;51.508;7.018;2022-07-29T15:34:35;27.70;93.90
13998;DHT22;7074;51.508;7.018;2022-07-29T15:37:02;27.80;94.00
13998;DHT22;7074;51.508;7.018;2022-07-29T15:39:31;27.80;93.70
13998;DHT22;7074;51.508;7.018;2022-07-29T15:41:58;27.90;93.50
13998;DHT22;7074;51.508;7.018;2022-07-29T15:44:26;27.60;93.50
13998;DHT22;7074;51.508;7.018;2022-07-29T15:46:53;27.50;93.40
13998;DHT22;7074;51.508;7.018;2022-07-29T15:49:29;27.50;93.30
13998;DHT22;7074;51.508;7.018;2022-07-29T15:51:58;27.90;93.30
13998;DHT22;7074;51.508;7.018;2022-07-29T15:54:25;28.20;93.10
13998;DHT22;7074;51.508;7.018;2022-07-29T15:56:54;28.30;92.50
13998;DHT22;7074;51.508;7.018;2022-07-29T15:59:22;28.20;92.60
13998;DHT22;7074;51.508;7.018;2022-07-29T16:01:49;28.20;92.30
13998;DHT22;7074;51.508;7.018;2022-07-29T16:04:17;28.20;92.60
13998;DHT22;7074;51.508;7.018;2022-07-29T16:06:45;28.20;92.30
13998;DHT22;7074;51.508;7.018;2022-07-29T16:09:12;28.50;92.10
13998;DHT22;7074;51.508;7.018;2022-07-29T16:11:40;28.20;90.90
13998;DHT22;7074;51.508;7.018;2022-07-29T16:14:09;28.30;91.30
13998;DHT22;7074;51.508;7.018;2022-07-29T16:16:37;28.40;91.20
13998;DHT22;7074;51.508;7.018;2022-07-29T16:19:05;28.20;90.80
13998;DHT22;7074;51.508;7.018;2022-07-29T16:21:34;28.10;91.10
13998;DHT22;7074;51.508;7.018;2022-07-29T16:24:02;28.10;91.20
13998;DHT22;7074;51.508;7.018;2022-07-29T16:26:30;28.10;90.60
13998;DHT22;7074;51.508;7.018;2022-07-29T16:28:58;28.20;90.90
13998;DHT22;7074;51.508;7.018;2022-07-29T16:31:27;28.20;91.00
13998;DHT22;7074;51.508;7.018;2022-07-29T16:33:54;28.00;90.70
13998;DHT22;7074;51.508;7.018;2022-07-29T16:36:22;28.10;90.50
13998;DHT22;7074;51.508;7.018;2022-07-29T16:38:49;28.10;90.80
13998;DHT22;7074;51.508;7.018;2022-07-29T16:41:16;28.10;90.90
13998;DHT22;7074;51.508;7.018;2022-07-29T16:43:43;28.10;90.20
13998;DHT22;7074;51.508;7.018;2022-07-29T16:46:11;27.90;90.60
13998;DHT22;7074;51.508;7.018;2022-07-29T16:48:40;27.70;90.90
13998;DHT22;7074;51.508;7.018;2022-07-29T16:51:07;27.30;92.20
13998;DHT22;7074;51.508;7.018;2022-07-29T16:53:35;27.40;92.60
13998;DHT22;7074;51.508;7.018;2022-07-29T16:56:02;27.20;92.50
13998;DHT22;7074;51.508;7.018;2022-07-29T16:58:29;27.20;92.50
13998;DHT22;7074;51.508;7.018;2022-07-29T17:00:57;27.10;92.30
13998;DHT22;7074;51.508;7.018;2022-07-29T17:03:25;26.90;92.20
13998;DHT22;7074;51.508;7.018;2022-07-29T17:05:54;26.80;92.10
13998;DHT22;7074;51.508;7.018;2022-07-29T17:08:21;26.70;92.20
13998;DHT22;7074;51.508;7.018;2022-07-29T17:10:49;26.80;92.00
13998;DHT22;7074;51.508;7.018;2022-07-29T17:13:16;26.70;91.40
13998;DHT22;7074;51.508;7.018;2022-07-29T17:15:43;26.70;91.70
13998;DHT22;7074;51.508;7.018;2022-07-29T17:18:10;26.90;91.60
13998;DHT22;7074;51.508;7.018;2022-07-29T17:20:37;26.90;91.60
13998;DHT22;7074;51.508;7.018;2022-07-29T17:23:06;27.10;91.50
13998;DHT22;7074;51.508;7.018;2022-07-29T17:25:34;27.10;91.30
13998;DHT22;7074;51.508;7.018;2022-07-29T17:28:01;26.80;91.00
13998;DHT22;7074;51.508;7.018;2022-07-29T17:30:28;26.90;91.20
13998;DHT22;7074;51.508;7.018;2022-07-29T17:32:55;26.90;90.90
13998;DHT22;7074;51.508;7.018;2022-07-29T17:35:23;26.90;90.40
13998;DHT22;7074;51.508;7.018;2022-07-29T17:38:09;27.00;90.30
13998;DHT22;7074;51.508;7.018;2022-07-29T17:40:36;27.10;90.20
13998;DHT22;7074;51.508;7.018;2022-07-29T17:43:03;27.20;89.90
13998;DHT22;7074;51.508;7.018;2022-07-29T17:45:33;27.10;88.90
13998;DHT22;7074;51.508;7.018;2022-07-29T17:48:01;27.10;88.40
13998;DHT22;7074;51.508;7.018;2022-07-29T17:50:28;26.80;88.60
13998;DHT22;7074;51.508;7.018;2022-07-29T17:52:55;26.80;89.00
13998;DHT22;7074;51.508;7.018;2022-07-29T17:55:24;26.60;87.50
13998;DHT22;7074;51.508;7.018;2022-07-29T17:57:51;26.60;87.50
13998;DHT22;7074;51.508;7.018;2022-07-29T18:00:19;26.50;86.20
13998;DHT22;7074;51.508;7.018;2022-07-29T18:02:47;26.50;86.80
13998;DHT22;7074;51.508;7.018;2022-07-29T18:05:14;26.50;87.50
13998;DHT22;7074;51.508;7.018;2022-07-29T18:07:42;26.20;87.20
13998;DHT22;7074;51.508;7.018;2022-07-29T18:10:09;26.20;88.00
13998;DHT22;7074;51.508;7.018;2022-07-29T18:12:38;26.20;87.80
13998;DHT22;7074;51.508;7.018;2022-07-29T18:15:06;26.20;88.30
13998;DHT22;7074;51.508;7.018;2022-07-29T18:17:33;26.10;89.10
13998;DHT22;7074;51.508;7.018;2022-07-29T18:20:00;26.00;90.00
13998;DHT22;7074;51.508;7.018;2022-07-29T18:22:27;26.00;90.50
13998;DHT22;7074;51.508;7.018;2022-07-29T18:24:55;25.70;91.10
13998;DHT22;7074;51.508;7.018;2022-07-29T18:27:22;25.70;91.30
13998;DHT22;7074;51.508;7.018;2022-07-29T18:29:52;25.60;91.50
13998;DHT22;7074;51.508;7.018;2022-07-29T18:32:20;25.60;91.40
13998;DHT22;7074;51.508;7.018;2022-07-29T18:34:48;25.70;91.30
13998;DHT22;7074;51.508;7.018;2022-07-29T18:37:15;25.60;91.40
13998;DHT22;7074;51.508;7.018;2022-07-29T18:39:43;25.50;91.50
13998;DHT22;7074;51.508;7.018;2022-07-29T18:42:10;25.60;91.60
13998;DHT22;7074;51.508;7.018;2022-07-29T18:44:37;25.60;91.80
13998;DHT22;7074;51.508;7.018;2022-07-29T18:47:06;25.60;91.90
13998;DHT22;7074;51.508;7.018;2022-07-29T18:49:33;25.60;92.00
13998;DHT22;7074;51.508;7.018;2022-07-29T18:52:00;25.50;92.00
13998;DHT22;7074;51.508;7.018;2022-07-29T18:54:27;25.60;92.40
13998;DHT22;7074;51.508;7.018;2022-07-29T18:56:56;25.60;92.40
13998;DHT22;7074;51.508;7.018;2022-07-29T18:59:23;25.60;92.60
13998;DHT22;7074;51.508;7.018;2022-07-29T19:01:51;25.60;92.60
13998;DHT22;7074;51.508;7.018;2022-07-29T19:04:20;25.60;92.50
13998;DHT22;7074;51.508;7.018;2022-07-29T19:06:47;25.60;92.60
13998;DHT22;7074;51.508;7.018;2022-07-29T19:09:14;25.50;93.60
13998;DHT22;7074;51.508;7.018;2022-07-29T19:11:42;25.50;94.20
13998;DHT22;7074;51.508;7.018;2022-07-29T19:14:10;25.40;94.60
13998;DHT22;7074;51.508;7.018;2022-07-29T19:16:37;25.30;94.90
13998;DHT22;7074;51.508;7.018;2022-07-29T19:19:04;25.20;95.40
13998;DHT22;7074;51.508;7.018;2022-07-29T19:21:33;25.10;95.90
13998;DHT22;7074;51.508;7.018;2022-07-29T19:24:00;25.10;95.70
13998;DHT22;7074;51.508;7.018;2022-07-29T19:26:29;25.10;96.40
13998;DHT22;7074;51.508;7.018;2022-07-29T19:28:58;25.00;96.20
13998;DHT22;7074;51.508;7.018;2022-07-29T19:31:25;25.00;96.70
13998;DHT22;7074;51.508;7.018;2022-07-29T19:33:52;24.80;97.00
13998;DHT22;7074;51.508;7.018;2022-07-29T19:36:20;24.80;97.60
13998;DHT22;7074;51.508;7.018;2022-07-29T19:38:48;24.70;97.80
13998;DHT22;7074;51.508;7.018;2022-07-29T19:41:16;24.60;98.30
13998;DHT22;7074;51.508;7.018;2022-07-29T19:43:43;24.50;98.30
13998;DHT22;7074;51.508;7.018;2022-07-29T19:46:10;24.40;98.60
13998;DHT22;7074;51.508;7.018;2022-07-29T19:48:37;24.30;98.90
13998;DHT22;7074;51.508;7.018;2022-07-29T19:51:04;24.30;99.30
13998;DHT22;7074;51.508;7.018;2022-07-29T19:53:32;24.20;99.90
13998;DHT22;7074;51.508;7.018;2022-07-29T19:56:00;24.10;99.90
13998;DHT22;7074;51.508;7.018;2022-07-29T19:58:28;23.90;99.90
13998;DHT22;7074;51.508;7.018;2022-07-29T20:00:55;23.80;99.90
13998;DHT22;7074;51.508;7.018;2022-07-29T20:03:23;23.70;99.90
13998;DHT22;7074;51.508;7.018;2022-07-29T20:05:50;23.70;99.90
13998;DHT22;7074;51.508;7.018;2022-07-29T20:08:17;23.60;99.90
13998;DHT22;7074;51.508;7.018;2022-07-29T20:10:45;23.50;99.90
13998;DHT22;7074;51.508;7.018;2022-07-29T20:13:13;23.50;99.90
13998;DHT22;7074;51.508;7.018;2022-07-29T20:15:41;23.40;99.90
13998;DHT22;7074;51.508;7.018;2022-07-29T20:18:08;23.40;99.90
13998;DHT22;7074;51.508;7.018;2022-07-29T20:20:35;23.30;99.90
13998;DHT22;7074;51.508;7.018;2022-07-29T20:23:02;23.10;99.90
13998;DHT22;7074;51.508;7.018;2022-07-29T20:25:29;23.00;99.90
13998;DHT22;7074;51.508;7.018;2022-07-29T20:27:57;23.10;99.90
13998;DHT22;7074;51.508;7.018;2022-07-29T20:30:26;22.90;99.90
13998;DHT22;7074;51.508;7.018;2022-07-29T20:32:54;22.90;99.90
13998;DHT22;7074;51.508;7.018;2022-07-29T20:35:21;22.90;99.90
13998;DHT22;7074;51.508;7.018;2022-07-29T20:37:48;22.80;99.90
13998;DHT22;7074;51.508;7.018;2022-07-29T20:40:16;22.80;99.90
13998;DHT22;7074;51.508;7.018;2022-07-29T20:42:43;22.70;99.90
13998;DHT22;7074;51.508;7.018;2022-07-29T20:45:10;22.70;99.90
13998;DHT22;7074;51.508;7.018;2022-07-29T20:47:40;22.70;99.90
13998;DHT22;7074;51.508;7.018;2022-07-29T20:50:08;22.60;99.90
13998;DHT22;7074;51.508;7.018;2022-07-29T20:52:35;22.60;99.90
13998;DHT22;7074;51.508;7.018;2022-07-29T20:55:06;22.60;99.90
13998;DHT22;7074;51.508;7.018;2022-07-29T20:57:33;22.50;99.90
13998;DHT22;7074;51.508;7.018;2022-07-29T21:00:00;22.40;99.90
13998;DHT22;7074;51.508;7.018;2022-07-29T21:02:28;22.30;99.90
13998;DHT22;7074;51.508;7.018;2022-07-29T21:04:57;22.30;99.90
13998;DHT22;7074;51.508;7.018;2022-07-29T21:07:24;22.10;99.90
13998;DHT22;7074;51.508;7.018;2022-07-29T21:09:52;22.10;99.90
13998;DHT22;7074;51.508;7.018;2022-07-29T21:12:19;22.10;99.90
13998;DHT22;7074;51.508;7.018;2022-07-29T21:14:47;22.00;99.90
13998;DHT22;7074;51.508;7.018;2022-07-29T21:17:15;22.00;99.90
13998;DHT22;7074;51.508;7.018;2022-07-29T21:19:44;21.90;99.90
13998;DHT22;7074;51.508;7.018;2022-07-29T21:22:13;21.90;99.90
13998;DHT22;7074;51.508;7.018;2022-07-29T21:24:40;21.80;99.90
13998;DHT22;7074;51.508;7.018;2022-07-29T21:27:07;21.80;99.90
13998;DHT22;7074;51.508;7.018;2022-07-29T21:29:52;21.90;99.90
13998;DHT22;7074;51.508;7.018;2022-07-29T21:32:19;21.80;99.90
13998;DHT22;7074;51.508;7.018;2022-07-29T21:34:46;21.80;99.90
13998;DHT22;7074;51.508;7.018;2022-07-29T21:37:15;21.80;99.90
13998;DHT22;7074;51.508;7.018;2022-07-29T21:39:42;21.80;99.90
13998;DHT22;7074;51.508;7.018;2022-07-29T21:42:09;21.70;99.90
13998;DHT22;7074;51.508;7.018;2022-07-29T21:44:36;21.70;99.90
13998;DHT22;7074;51.508;7.018;2022-07-29T21:47:06;21.60;99.90
13998;DHT22;7074;51.508;7.018;2022-07-29T21:49:35;21.50;99.90
13998;DHT22;7074;51.508;7.018;2022-07-29T21:52:02;21.60;99.90
13998;DHT22;7074;51.508;7.018;2022-07-29T21:54:31;21.50;99.90
13998;DHT22;7074;51.508;7.018;2022-07-29T21:56:58;21.50;99.90
13998;DHT22;7074;51.508;7.018;2022-07-29T21:59:25;21.50;99.90
13998;DHT22;7074;51.508;7.018;2022-07-29T22:01:53;21.50;99.90
13998;DHT22;7074;51.508;7.018;2022-07-29T22:04:20;21.40;99.90
13998;DHT22;7074;51.508;7.018;2022-07-29T22:06:48;21.40;99.90
13998;DHT22;7074;51.508;7.018;2022-07-29T22:09:15;21.40;99.90
13998;DHT22;7074;51.508;7.018;2022-07-29T22:11:44;21.40;99.90
13998;DHT22;7074;51.508;7.018;2022-07-29T22:14:12;21.40;99.90
13998;DHT22;7074;51.508;7.018;2022-07-29T22:16:42;21.40;99.90
13998;DHT22;7074;51.508;7.018;2022-07-29T22:19:09;21.40;99.90